Time;durP1;ratioP1;P1;durP2;ratioP2;P2;SDS_P1;SDS_P2;PMS_P1;PMS_P2;Temp;Humidity;BMP_temperature;BMP_pressure;BME280_temperature;BME280_humidity;BME280_pressure;Samples;Min_cycle;Max_cycle;Signal;HPM_P1;HPM_P2
2023/04/29 00:00:27;;;;;;;20.00;11.00;;;;;;;10.86;46.50;100491.70;108395;1276;58942;-88
2023/04/29 00:04:13;;;;;;;18.30;11.00;;;;;;;10.81;46.63;100485.59;108369;1277;73473;-89
2023/04/29 00:08:01;;;;;;;17.10;11.20;;;;;;;10.80;46.61;100479.05;108372;1277;67189;-88
2023/04/29 00:11:49;;;;;;;20.40;10.90;;;;;;;10.84;46.63;100476.58;108409;1276;70678;-89
2023/04/29 00:15:36;;;;;;;23.50;10.60;;;;;;;10.85;46.75;100474.13;108377;1277;58987;-89
2023/04/29 00:19:21;;;;;;;19.40;10.90;;;;;;;10.84;46.88;100475.02;108411;1277;60021;-88
2023/04/29 00:23:08;;;;;;;15.70;10.90;;;;;;;10.83;47.09;100473.14;108348;1277;73101;-88
2023/04/29 00:26:55;;;;;;;20.90;11.70;;;;;;;10.85;47.00;100471.71;108329;1276;68888;-88
2023/04/29 00:30:41;;;;;;;21.80;11.60;;;;;;;10.87;47.01;100471.67;108611;1273;71400;-89
2023/04/29 00:34:30;;;;;;;18.00;11.40;;;;;;;10.92;47.15;100477.77;109109;1266;59234;-89
2023/04/29 00:38:16;;;;;;;13.60;10.50;;;;;;;10.96;47.20;100472.52;109117;1267;59481;-88
2023/04/29 00:42:12;;;;;;;19.30;10.70;;;;;;;10.97;47.30;100469.21;109162;1264;73369;-88
2023/04/29 00:45:59;;;;;;;15.00;11.10;;;;;;;11.00;47.44;100464.48;109135;1267;67187;-88
2023/04/29 00:49:45;;;;;;;19.40;11.40;;;;;;;11.01;47.41;100463.78;109109;1266;71252;-88
2023/04/29 00:53:32;;;;;;;15.40;10.90;;;;;;;11.04;47.47;100469.25;109110;1267;59188;-89
2023/04/29 00:57:19;;;;;;;17.70;11.30;;;;;;;11.06;47.48;100465.75;109129;1265;59171;-89
2023/04/29 01:01:06;;;;;;;22.50;12.10;;;;;;;11.03;47.55;100460.98;109129;1266;73207;-88
2023/04/29 01:04:52;;;;;;;16.30;10.60;;;;;;;10.97;47.64;100459.39;109109;1267;67330;-89
2023/04/29 01:11:36;;;;;;;19.40;11.40;;;;;;;10.88;47.78;100463.89;109175;1264;59405;-89
2023/04/29 01:15:22;;;;;;;17.80;10.40;;;;;;;10.89;47.86;100466.29;109208;1264;59310;-89
2023/04/29 01:22:13;;;;;;;17.20;11.30;;;;;;;10.87;47.97;100461.34;109086;1265;66457;-89
2023/04/29 01:25:58;;;;;;;16.40;10.60;;;;;;;10.85;48.07;100458.79;109013;1265;71149;-89
2023/04/29 01:30:08;;;;;;;25.60;12.60;;;;;;;10.85;48.13;100457.42;108533;1273;59008;-88
2023/04/29 01:33:59;;;;;;;18.80;11.00;;;;;;;10.77;48.07;100457.73;107860;1282;60741;-89
2023/04/29 01:44:11;;;;;;;22.90;11.50;;;;;;;10.77;48.34;100459.29;109124;1264;72384;-89
2023/04/29 01:50:38;;;;;;;18.60;12.00;;;;;;;10.80;48.40;100454.92;109204;1264;59050;-89
2023/04/29 01:54:25;;;;;;;23.40;11.30;;;;;;;10.82;48.53;100455.06;109177;1264;73069;-89
2023/04/29 01:57:49;;;;;;;19.10;10.90;;;;;;;10.81;48.64;100453.36;109180;1264;67248;-89
2023/04/29 02:15:24;;;;;;;18.30;10.90;;;;;;;10.81;48.95;100456.98;109169;1264;71762;-89
2023/04/29 02:19:11;;;;;;;17.10;11.20;;;;;;;10.77;49.07;100453.76;109143;1264;58920;-89
2023/04/29 02:22:57;;;;;;;19.30;11.10;;;;;;;10.75;49.14;100456.73;109048;1265;59192;-89
2023/04/29 02:26:44;;;;;;;15.60;10.80;;;;;;;10.70;49.23;100457.18;109011;1266;73285;-88
2023/04/29 02:30:34;;;;;;;18.70;11.50;;;;;;;10.67;49.34;100454.48;109040;1266;69295;-89
2023/04/29 02:34:20;;;;;;;22.30;11.70;;;;;;;10.65;49.40;100453.14;109034;1266;71123;-89
2023/04/29 02:38:08;;;;;;;22.00;11.60;;;;;;;10.63;49.38;100452.14;108615;1273;58901;-89
2023/04/29 02:41:58;;;;;;;16.50;10.90;;;;;;;10.63;49.40;100451.27;108613;1274;59361;-89
2023/04/29 02:45:45;;;;;;;18.20;12.10;;;;;;;10.62;49.57;100450.44;108613;1274;74436;-89
2023/04/29 02:49:32;;;;;;;20.00;11.80;;;;;;;10.57;49.63;100448.11;107921;1281;67275;-89
2023/04/29 03:17:52;;;;;;;20.90;12.60;;;;;;;10.54;50.25;100442.13;109211;1264;66423;-89
2023/04/29 03:21:40;;;;;;;18.80;12.40;;;;;;;10.52;50.37;100449.23;109176;1264;71123;-89
2023/04/29 03:25:27;;;;;;;23.40;12.80;;;;;;;10.50;50.69;100443.06;109005;1266;58710;-89
2023/04/29 03:29:13;;;;;;;24.20;13.40;;;;;;;10.48;50.85;100433.12;108587;1273;59446;-89
2023/04/29 03:33:00;;;;;;;17.60;12.60;;;;;;;10.42;50.93;100433.92;108509;1273;74482;-89
2023/04/29 03:36:48;;;;;;;20.90;13.10;;;;;;;10.39;51.22;100437.45;108504;1273;68449;-89
2023/04/29 03:40:35;;;;;;;18.90;12.80;;;;;;;10.42;51.43;100441.84;108583;1273;72577;-89
2023/04/29 03:44:22;;;;;;;20.90;12.90;;;;;;;10.43;51.54;100440.80;108576;1273;58279;-89
2023/04/29 03:48:18;;;;;;;18.00;13.10;;;;;;;10.46;51.78;100440.39;108546;1274;58964;-89
2023/04/29 03:52:11;;;;;;;20.80;14.20;;;;;;;10.39;51.85;100433.48;108593;1273;74079;-89
2023/04/29 03:58:31;;;;;;;25.40;14.30;;;;;;;10.40;51.93;100437.42;109160;1264;72355;-89
2023/04/29 04:10:39;;;;;;;23.40;14.50;;;;;;;10.48;52.34;100442.58;109034;1267;67551;-88
2023/04/29 04:14:26;;;;;;;21.10;14.30;;;;;;;10.51;52.60;100439.95;109067;1267;72784;-88
2023/04/29 04:18:12;;;;;;;22.40;15.20;;;;;;;10.53;52.59;100443.36;109017;1264;59277;-89
2023/04/29 04:21:59;;;;;;;27.90;14.90;;;;;;;10.54;52.81;100444.73;109105;1264;59215;-89
2023/04/29 04:25:46;;;;;;;18.50;14.40;;;;;;;10.54;52.78;100445.23;109007;1265;74402;-88
2023/04/29 04:29:32;;;;;;;22.30;14.40;;;;;;;10.56;52.95;100445.55;108558;1273;67239;-89
2023/04/29 04:33:19;;;;;;;21.00;14.30;;;;;;;10.59;53.09;100444.79;108595;1273;72388;-89
2023/04/29 04:37:07;;;;;;;21.60;14.10;;;;;;;10.65;53.25;100445.90;107918;1280;58483;-88
